sensor_id;sensor_type;location;lat;lon;timestamp;pressure;altitude;pressure_sealevel;temperature;humidity
7376;BME280;3728;42.266;24.944;2022-11-15T00:00:43;100335.66;;;8.81;100.00
7376;BME280;3728;42.266;24.944;2022-11-15T00:03:29;100340.00;;;9.06;100.00
7376;BME280;3728;42.266;24.944;2022-11-15T00:06:16;100327.88;;;9.25;100.00
7376;BME280;3728;42.266;24.944;2022-11-15T00:09:03;100324.97;;;8.77;100.00
7376;BME280;3728;42.266;24.944;2022-11-15T00:11:51;100327.63;;;8.67;100.00
7376;BME280;3728;42.266;24.944;2022-11-15T00:14:37;100327.41;;;8.49;100.00
7376;BME280;3728;42.266;24.944;2022-11-15T00:17:23;100325.88;;;8.48;100.00
7376;BME280;3728;42.266;24.944;2022-11-15T00:20:10;100322.19;;;8.49;100.00
7376;BME280;3728;42.266;24.944;2022-11-15T00:22:56;100313.03;;;8.61;100.00
7376;BME280;3728;42.266;24.944;2022-11-15T00:25:43;100314.56;;;8.62;100.00
7376;BME280;3728;42.266;24.944;2022-11-15T00:28:29;100306.22;;;8.65;100.00
7376;BME280;3728;42.266;24.944;2022-11-15T00:31:15;100308.31;;;8.68;100.00
7376;BME280;3728;42.266;24.944;2022-11-15T00:34:01;100309.53;;;8.81;100.00
7376;BME280;3728;42.266;24.944;2022-11-15T00:36:48;100301.16;;;8.84;100.00
7376;BME280;3728;42.266;24.944;2022-11-15T00:39:34;100302.72;;;8.90;100.00
7376;BME280;3728;42.266;24.944;2022-11-15T00:42:21;100301.81;;;9.10;100.00
7376;BME280;3728;42.266;24.944;2022-11-15T00:45:07;100303.69;;;9.04;100.00
7376;BME280;3728;42.266;24.944;2022-11-15T00:47:54;100291.94;;;9.07;100.00
7376;BME280;3728;42.266;24.944;2022-11-15T00:50:40;100291.75;;;9.32;100.00
7376;BME280;3728;42.266;24.944;2022-11-15T00:53:27;100289.75;;;9.19;100.00
7376;BME280;3728;42.266;24.944;2022-11-15T00:56:14;100290.97;;;9.65;100.00
7376;BME280;3728;42.266;24.944;2022-11-15T00:59:00;100286.66;;;9.50;100.00
7376;BME280;3728;42.266;24.944;2022-11-15T01:01:46;100289.94;;;9.32;100.00
7376;BME280;3728;42.266;24.944;2022-11-15T01:04:32;100288.06;;;9.33;100.00
7376;BME280;3728;42.266;24.944;2022-11-15T01:07:17;100288.13;;;9.28;100.00
7376;BME280;3728;42.266;24.944;2022-11-15T01:10:04;100284.50;;;9.19;100.00
7376;BME280;3728;42.266;24.944;2022-11-15T01:12:50;100280.16;;;9.43;100.00
7376;BME280;3728;42.266;24.944;2022-11-15T01:15:40;100281.31;;;9.32;100.00
7376;BME280;3728;42.266;24.944;2022-11-15T01:18:26;100282.91;;;9.28;100.00
7376;BME280;3728;42.266;24.944;2022-11-15T01:21:15;100281.41;;;9.17;100.00
7376;BME280;3728;42.266;24.944;2022-11-15T01:24:03;100283.91;;;9.32;100.00
7376;BME280;3728;42.266;24.944;2022-11-15T01:26:49;100278.53;;;9.52;100.00
7376;BME280;3728;42.266;24.944;2022-11-15T01:29:35;100287.19;;;9.81;100.00
7376;BME280;3728;42.266;24.944;2022-11-15T01:32:21;100277.75;;;9.51;100.00
7376;BME280;3728;42.266;24.944;2022-11-15T01:35:08;100282.53;;;10.02;100.00
7376;BME280;3728;42.266;24.944;2022-11-15T01:37:56;100281.13;;;9.52;100.00
7376;BME280;3728;42.266;24.944;2022-11-15T01:40:42;100281.03;;;9.33;100.00
7376;BME280;3728;42.266;24.944;2022-11-15T01:43:31;100277.41;;;9.29;100.00
7376;BME280;3728;42.266;24.944;2022-11-15T01:46:35;100283.63;;;9.33;100.00
7376;BME280;3728;42.266;24.944;2022-11-15T01:49:23;100276.00;;;9.71;100.00
7376;BME280;3728;42.266;24.944;2022-11-15T01:52:13;100280.97;;;9.38;100.00
7376;BME280;3728;42.266;24.944;2022-11-15T01:55:12;100280.19;;;10.00;100.00
7376;BME280;3728;42.266;24.944;2022-11-15T01:58:03;100271.97;;;9.83;100.00
7376;BME280;3728;42.266;24.944;2022-11-15T02:00:50;100271.38;;;9.62;100.00
7376;BME280;3728;42.266;24.944;2022-11-15T02:03:58;100274.25;;;9.32;100.00
7376;BME280;3728;42.266;24.944;2022-11-15T02:07:06;100266.63;;;9.36;100.00
7376;BME280;3728;42.266;24.944;2022-11-15T02:09:58;100276.53;;;9.39;100.00
7376;BME280;3728;42.266;24.944;2022-11-15T02:12:48;100270.31;;;9.35;100.00
7376;BME280;3728;42.266;24.944;2022-11-15T02:15:44;100265.53;;;9.03;100.00
7376;BME280;3728;42.266;24.944;2022-11-15T02:22:39;100265.00;;;9.06;100.00
7376;BME280;3728;42.266;24.944;2022-11-15T02:28:56;100266.94;;;9.29;100.00
7376;BME280;3728;42.266;24.944;2022-11-15T02:32:05;100267.50;;;9.60;100.00
7376;BME280;3728;42.266;24.944;2022-11-15T02:41:32;100267.34;;;9.75;100.00
7376;BME280;3728;42.266;24.944;2022-11-15T02:44:28;100256.78;;;9.85;100.00
7376;BME280;3728;42.266;24.944;2022-11-15T02:47:19;100262.06;;;9.80;100.00
7376;BME280;3728;42.266;24.944;2022-11-15T02:50:09;100259.31;;;9.67;100.00
7376;BME280;3728;42.266;24.944;2022-11-15T02:52:57;100254.75;;;9.53;100.00
7376;BME280;3728;42.266;24.944;2022-11-15T02:55:53;100254.09;;;9.67;100.00
7376;BME280;3728;42.266;24.944;2022-11-15T03:02:41;100249.31;;;9.74;100.00
7376;BME280;3728;42.266;24.944;2022-11-15T03:12:33;100248.22;;;10.03;100.00
7376;BME280;3728;42.266;24.944;2022-11-15T03:16:00;100247.72;;;9.49;100.00
7376;BME280;3728;42.266;24.944;2022-11-15T03:18:53;100244.75;;;9.27;100.00
7376;BME280;3728;42.266;24.944;2022-11-15T03:21:46;100242.59;;;9.34;100.00
7376;BME280;3728;42.266;24.944;2022-11-15T03:24:36;100243.09;;;9.36;100.00
7376;BME280;3728;42.266;24.944;2022-11-15T03:27:26;100241.31;;;9.31;100.00
7376;BME280;3728;42.266;24.944;2022-11-15T03:30:16;100239.66;;;9.07;100.00
7376;BME280;3728;42.266;24.944;2022-11-15T03:33:03;100235.88;;;9.28;100.00
7376;BME280;3728;42.266;24.944;2022-11-15T03:35:51;100232.00;;;9.20;100.00
7376;BME280;3728;42.266;24.944;2022-11-15T03:38:39;100231.38;;;9.28;100.00
7376;BME280;3728;42.266;24.944;2022-11-15T03:41:31;100230.84;;;9.31;100.00
7376;BME280;3728;42.266;24.944;2022-11-15T03:47:43;100232.53;;;9.51;100.00
7376;BME280;3728;42.266;24.944;2022-11-15T03:50:34;100238.97;;;9.30;100.00
7376;BME280;3728;42.266;24.944;2022-11-15T03:53:21;100222.25;;;9.26;100.00
7376;BME280;3728;42.266;24.944;2022-11-15T03:56:07;100220.72;;;9.25;100.00
7376;BME280;3728;42.266;24.944;2022-11-15T03:58:53;100211.88;;;9.21;100.00
7376;BME280;3728;42.266;24.944;2022-11-15T04:01:39;100214.53;;;9.16;100.00
7376;BME280;3728;42.266;24.944;2022-11-15T04:04:25;100213.41;;;9.22;100.00
7376;BME280;3728;42.266;24.944;2022-11-15T04:07:11;100208.22;;;9.17;100.00
7376;BME280;3728;42.266;24.944;2022-11-15T04:09:57;100214.13;;;9.32;100.00
7376;BME280;3728;42.266;24.944;2022-11-15T04:12:52;100209.88;;;9.41;100.00
7376;BME280;3728;42.266;24.944;2022-11-15T04:15:38;100207.25;;;9.70;100.00
7376;BME280;3728;42.266;24.944;2022-11-15T04:18:24;100208.75;;;9.76;100.00
7376;BME280;3728;42.266;24.944;2022-11-15T04:21:10;100202.41;;;9.58;100.00
7376;BME280;3728;42.266;24.944;2022-11-15T04:24:15;100198.63;;;9.41;100.00
7376;BME280;3728;42.266;24.944;2022-11-15T04:27:02;100201.59;;;9.29;100.00
7376;BME280;3728;42.266;24.944;2022-11-15T04:29:48;100199.34;;;9.18;100.00
7376;BME280;3728;42.266;24.944;2022-11-15T04:32:34;100199.47;;;9.31;100.00
7376;BME280;3728;42.266;24.944;2022-11-15T04:35:20;100200.66;;;9.49;100.00
7376;BME280;3728;42.266;24.944;2022-11-15T04:38:07;100196.00;;;9.41;100.00
7376;BME280;3728;42.266;24.944;2022-11-15T04:40:55;100200.91;;;9.47;100.00
7376;BME280;3728;42.266;24.944;2022-11-15T04:43:41;100193.47;;;9.59;100.00
7376;BME280;3728;42.266;24.944;2022-11-15T04:46:27;100195.00;;;9.66;100.00
7376;BME280;3728;42.266;24.944;2022-11-15T04:49:13;100200.25;;;9.66;100.00
7376;BME280;3728;42.266;24.944;2022-11-15T04:51:59;100194.09;;;9.75;100.00
7376;BME280;3728;42.266;24.944;2022-11-15T04:54:45;100193.19;;;9.61;100.00
7376;BME280;3728;42.266;24.944;2022-11-15T04:57:31;100190.78;;;9.41;100.00
7376;BME280;3728;42.266;24.944;2022-11-15T05:00:17;100187.66;;;9.39;100.00
7376;BME280;3728;42.266;24.944;2022-11-15T05:03:03;100190.25;;;9.44;100.00
7376;BME280;3728;42.266;24.944;2022-11-15T05:06:08;100190.25;;;9.44;100.00
7376;BME280;3728;42.266;24.944;2022-11-15T05:08:56;100184.19;;;9.48;100.00
7376;BME280;3728;42.266;24.944;2022-11-15T05:11:44;100194.38;;;9.74;100.00
7376;BME280;3728;42.266;24.944;2022-11-15T05:14:31;100197.88;;;9.64;100.00
7376;BME280;3728;42.266;24.944;2022-11-15T05:17:16;100193.16;;;9.66;100.00
7376;BME280;3728;42.266;24.944;2022-11-15T05:20:02;100192.31;;;9.71;100.00
7376;BME280;3728;42.266;24.944;2022-11-15T05:22:48;100200.34;;;9.79;100.00
7376;BME280;3728;42.266;24.944;2022-11-15T05:25:36;100194.38;;;9.74;100.00
7376;BME280;3728;42.266;24.944;2022-11-15T05:28:22;100190.78;;;9.70;100.00
7376;BME280;3728;42.266;24.944;2022-11-15T05:31:13;100194.88;;;9.76;100.00
7376;BME280;3728;42.266;24.944;2022-11-15T05:34:00;100194.72;;;9.67;100.00
7376;BME280;3728;42.266;24.944;2022-11-15T05:36:49;100199.78;;;9.82;100.00
7376;BME280;3728;42.266;24.944;2022-11-15T05:39:35;100195.44;;;9.96;100.00
7376;BME280;3728;42.266;24.944;2022-11-15T05:42:22;100200.69;;;9.96;100.00
7376;BME280;3728;42.266;24.944;2022-11-15T05:45:09;100196.03;;;9.93;100.00
7376;BME280;3728;42.266;24.944;2022-11-15T05:47:56;100191.22;;;10.00;100.00
7376;BME280;3728;42.266;24.944;2022-11-15T05:50:46;100201.41;;;9.78;100.00
7376;BME280;3728;42.266;24.944;2022-11-15T05:53:32;100204.47;;;9.85;100.00
7376;BME280;3728;42.266;24.944;2022-11-15T05:56:20;100206.00;;;9.91;100.00
7376;BME280;3728;42.266;24.944;2022-11-15T05:59:09;100208.38;;;9.88;100.00
7376;BME280;3728;42.266;24.944;2022-11-15T06:01:58;100208.63;;;10.15;100.00
7376;BME280;3728;42.266;24.944;2022-11-15T06:04:44;100213.66;;;10.06;100.00
7376;BME280;3728;42.266;24.944;2022-11-15T06:07:31;100217.84;;;9.84;100.00
7376;BME280;3728;42.266;24.944;2022-11-15T06:10:18;100215.31;;;9.97;100.00
7376;BME280;3728;42.266;24.944;2022-11-15T06:13:05;100216.06;;;9.79;100.00
7376;BME280;3728;42.266;24.944;2022-11-15T06:15:55;100215.59;;;9.43;100.00
7376;BME280;3728;42.266;24.944;2022-11-15T06:18:42;100221.03;;;9.47;100.00
7376;BME280;3728;42.266;24.944;2022-11-15T06:21:28;100221.81;;;9.76;100.00
7376;BME280;3728;42.266;24.944;2022-11-15T06:24:14;100222.56;;;9.82;100.00
7376;BME280;3728;42.266;24.944;2022-11-15T06:27:00;100218.72;;;9.74;100.00
7376;BME280;3728;42.266;24.944;2022-11-15T06:29:46;100217.34;;;9.53;100.00
7376;BME280;3728;42.266;24.944;2022-11-15T06:32:34;100219.00;;;9.44;100.00
7376;BME280;3728;42.266;24.944;2022-11-15T06:35:20;100214.22;;;9.51;100.00
7376;BME280;3728;42.266;24.944;2022-11-15T06:38:08;100220.25;;;9.75;100.00
7376;BME280;3728;42.266;24.944;2022-11-15T06:40:55;100216.81;;;10.03;100.00
7376;BME280;3728;42.266;24.944;2022-11-15T06:43:48;100227.97;;;9.90;100.00
7376;BME280;3728;42.266;24.944;2022-11-15T06:46:34;100224.41;;;9.81;100.00
7376;BME280;3728;42.266;24.944;2022-11-15T06:49:20;100220.78;;;9.77;100.00
7376;BME280;3728;42.266;24.944;2022-11-15T06:52:06;100222.41;;;9.68;100.00
7376;BME280;3728;42.266;24.944;2022-11-15T06:54:51;100221.38;;;9.69;100.00
7376;BME280;3728;42.266;24.944;2022-11-15T06:57:46;100217.53;;;9.85;100.00
7376;BME280;3728;42.266;24.944;2022-11-15T07:00:36;100213.25;;;9.71;100.00
7376;BME280;3728;42.266;24.944;2022-11-15T07:03:42;100211.25;;;9.62;100.00
7376;BME280;3728;42.266;24.944;2022-11-15T07:06:29;100213.56;;;9.64;100.00
7376;BME280;3728;42.266;24.944;2022-11-15T07:09:15;100219.81;;;9.92;100.00
7376;BME280;3728;42.266;24.944;2022-11-15T07:12:01;100217.94;;;9.97;100.00
7376;BME280;3728;42.266;24.944;2022-11-15T07:14:51;100221.09;;;9.94;100.00
7376;BME280;3728;42.266;24.944;2022-11-15T07:17:38;100216.19;;;10.16;100.00
7376;BME280;3728;42.266;24.944;2022-11-15T07:20:24;100214.50;;;10.25;100.00
7376;BME280;3728;42.266;24.944;2022-11-15T07:23:11;100219.91;;;10.34;100.00
7376;BME280;3728;42.266;24.944;2022-11-15T07:25:57;100208.69;;;10.52;100.00
7376;BME280;3728;42.266;24.944;2022-11-15T07:28:44;100210.06;;;10.26;100.00
7376;BME280;3728;42.266;24.944;2022-11-15T07:31:30;100207.88;;;10.33;100.00
7376;BME280;3728;42.266;24.944;2022-11-15T07:34:16;100208.38;;;10.35;100.00
7376;BME280;3728;42.266;24.944;2022-11-15T07:37:02;100208.19;;;10.50;100.00
7376;BME280;3728;42.266;24.944;2022-11-15T07:39:48;100205.28;;;10.52;100.00
7376;BME280;3728;42.266;24.944;2022-11-15T07:42:34;100203.09;;;10.59;100.00
7376;BME280;3728;42.266;24.944;2022-11-15T07:45:45;100203.72;;;10.69;100.00
7376;BME280;3728;42.266;24.944;2022-11-15T07:48:31;100205.34;;;11.02;100.00
7376;BME280;3728;42.266;24.944;2022-11-15T07:51:28;100202.66;;;10.89;100.00
7376;BME280;3728;42.266;24.944;2022-11-15T07:54:14;100199.75;;;10.90;100.00
7376;BME280;3728;42.266;24.944;2022-11-15T07:57:00;100205.91;;;11.18;100.00
7376;BME280;3728;42.266;24.944;2022-11-15T07:59:51;100208.28;;;11.15;100.00
7376;BME280;3728;42.266;24.944;2022-11-15T08:02:37;100208.66;;;11.40;99.38
7376;BME280;3728;42.266;24.944;2022-11-15T08:05:23;100208.03;;;11.48;99.68
7376;BME280;3728;42.266;24.944;2022-11-15T08:08:10;100203.75;;;11.66;98.55
7376;BME280;3728;42.266;24.944;2022-11-15T08:11:00;100202.31;;;11.60;100.00
7376;BME280;3728;42.266;24.944;2022-11-15T08:13:46;100199.25;;;11.85;97.05
7376;BME280;3728;42.266;24.944;2022-11-15T08:16:32;100202.56;;;11.91;98.28
7376;BME280;3728;42.266;24.944;2022-11-15T08:19:18;100204.31;;;11.82;98.60
7376;BME280;3728;42.266;24.944;2022-11-15T08:22:03;100200.81;;;11.86;96.34
7376;BME280;3728;42.266;24.944;2022-11-15T08:24:49;100197.50;;;11.81;96.35
7376;BME280;3728;42.266;24.944;2022-11-15T08:27:35;100205.28;;;11.99;94.62
7376;BME280;3728;42.266;24.944;2022-11-15T08:30:22;100197.03;;;12.19;92.08
7376;BME280;3728;42.266;24.944;2022-11-15T08:33:13;100197.81;;;12.20;93.15
7376;BME280;3728;42.266;24.944;2022-11-15T08:36:00;100190.50;;;12.17;93.31
7376;BME280;3728;42.266;24.944;2022-11-15T08:38:46;100192.69;;;12.37;91.83
7376;BME280;3728;42.266;24.944;2022-11-15T08:41:34;100188.16;;;12.29;93.55
7376;BME280;3728;42.266;24.944;2022-11-15T08:44:22;100188.97;;;12.87;89.63
7376;BME280;3728;42.266;24.944;2022-11-15T08:47:11;100181.31;;;12.77;90.33
7376;BME280;3728;42.266;24.944;2022-11-15T08:49:58;100182.63;;;12.88;89.58
7376;BME280;3728;42.266;24.944;2022-11-15T08:52:45;100180.69;;;13.16;86.60
7376;BME280;3728;42.266;24.944;2022-11-15T08:55:36;100180.66;;;13.38;85.58
7376;BME280;3728;42.266;24.944;2022-11-15T08:58:22;100177.59;;;13.45;86.18
7376;BME280;3728;42.266;24.944;2022-11-15T09:01:18;100171.22;;;13.37;84.87
7376;BME280;3728;42.266;24.944;2022-11-15T09:04:05;100178.50;;;13.71;83.59
7376;BME280;3728;42.266;24.944;2022-11-15T09:06:50;100161.38;;;13.21;85.82
7376;BME280;3728;42.266;24.944;2022-11-15T09:09:37;100163.56;;;13.19;87.89
7376;BME280;3728;42.266;24.944;2022-11-15T09:12:24;100146.16;;;13.09;88.00
7376;BME280;3728;42.266;24.944;2022-11-15T09:15:15;100143.81;;;13.08;88.64
7376;BME280;3728;42.266;24.944;2022-11-15T09:18:01;100139.56;;;13.20;88.81
7376;BME280;3728;42.266;24.944;2022-11-15T09:20:47;100133.06;;;13.57;88.36
7376;BME280;3728;42.266;24.944;2022-11-15T09:23:33;100128.38;;;13.85;87.35
7376;BME280;3728;42.266;24.944;2022-11-15T09:26:19;100119.16;;;14.13;86.08
7376;BME280;3728;42.266;24.944;2022-11-15T09:29:05;100120.25;;;14.29;84.58
7376;BME280;3728;42.266;24.944;2022-11-15T09:31:53;100115.31;;;14.45;83.68
7376;BME280;3728;42.266;24.944;2022-11-15T09:34:39;100114.69;;;14.65;82.11
7376;BME280;3728;42.266;24.944;2022-11-15T09:37:25;100117.00;;;14.75;80.95
7376;BME280;3728;42.266;24.944;2022-11-15T09:40:13;100113.66;;;15.21;77.41
7376;BME280;3728;42.266;24.944;2022-11-15T09:43:27;100115.91;;;14.93;78.67
7376;BME280;3728;42.266;24.944;2022-11-15T09:49:13;100094.34;;;14.65;79.11
7376;BME280;3728;42.266;24.944;2022-11-15T09:52:14;100091.75;;;14.57;80.33
7376;BME280;3728;42.266;24.944;2022-11-15T09:54:47;100085.06;;;14.68;79.84
7376;BME280;3728;42.266;24.944;2022-11-15T10:03:16;100083.09;;;15.57;76.14
7376;BME280;3728;42.266;24.944;2022-11-15T10:05:53;100069.97;;;15.69;75.27
7376;BME280;3728;42.266;24.944;2022-11-15T10:08:50;100065.47;;;15.70;74.55
7376;BME280;3728;42.266;24.944;2022-11-15T10:11:37;100063.69;;;15.83;74.80
7376;BME280;3728;42.266;24.944;2022-11-15T10:14:24;100067.31;;;15.99;74.97
7376;BME280;3728;42.266;24.944;2022-11-15T10:22:49;100053.22;;;16.48;74.01
7376;BME280;3728;42.266;24.944;2022-11-15T10:25:33;100052.06;;;16.58;71.79
7376;BME280;3728;42.266;24.944;2022-11-15T10:28:14;100046.91;;;16.40;72.46
7376;BME280;3728;42.266;24.944;2022-11-15T10:30:58;100040.59;;;16.33;73.50
7376;BME280;3728;42.266;24.944;2022-11-15T10:33:34;100045.50;;;16.43;72.06
7376;BME280;3728;42.266;24.944;2022-11-15T10:44:26;100026.63;;;16.65;70.89
7376;BME280;3728;42.266;24.944;2022-11-15T10:49:55;100021.97;;;17.07;67.08
7376;BME280;3728;42.266;24.944;2022-11-15T10:52:28;100011.28;;;16.59;69.75
7376;BME280;3728;42.266;24.944;2022-11-15T10:57:52;100013.66;;;16.19;72.11
7376;BME280;3728;42.266;24.944;2022-11-15T11:00:36;100001.88;;;16.16;71.69
7376;BME280;3728;42.266;24.944;2022-11-15T11:03:27;99993.06;;;16.12;71.42
7376;BME280;3728;42.266;24.944;2022-11-15T11:08:36;99997.56;;;16.12;72.34
7376;BME280;3728;42.266;24.944;2022-11-15T11:11:05;99987.78;;;16.12;69.77
7376;BME280;3728;42.266;24.944;2022-11-15T11:13:39;99980.81;;;16.08;69.77
7376;BME280;3728;42.266;24.944;2022-11-15T11:16:24;99988.13;;;16.11;69.91
7376;BME280;3728;42.266;24.944;2022-11-15T11:19:17;99982.69;;;16.07;69.49
7376;BME280;3728;42.266;24.944;2022-11-15T11:25:02;99974.50;;;16.00;69.71
7376;BME280;3728;42.266;24.944;2022-11-15T11:27:36;99966.78;;;15.95;69.39
7376;BME280;3728;42.266;24.944;2022-11-15T11:33:08;99955.31;;;15.91;71.79
7376;BME280;3728;42.266;24.944;2022-11-15T11:44:43;99939.38;;;16.00;73.80
7376;BME280;3728;42.266;24.944;2022-11-15T11:47:34;99926.63;;;16.02;74.10
7376;BME280;3728;42.266;24.944;2022-11-15T11:50:19;99918.63;;;16.10;73.43
7376;BME280;3728;42.266;24.944;2022-11-15T11:53:05;99925.66;;;16.06;73.02
7376;BME280;3728;42.266;24.944;2022-11-15T11:56:01;99914.38;;;16.18;71.85
7376;BME280;3728;42.266;24.944;2022-11-15T11:58:42;99913.44;;;16.14;71.63
7376;BME280;3728;42.266;24.944;2022-11-15T12:01:34;99920.31;;;16.27;69.52
7376;BME280;3728;42.266;24.944;2022-11-15T12:04:24;99908.72;;;16.64;65.18
7376;BME280;3728;42.266;24.944;2022-11-15T12:07:03;99913.50;;;16.38;64.85
7376;BME280;3728;42.266;24.944;2022-11-15T12:09:44;99904.09;;;16.16;66.66
7376;BME280;3728;42.266;24.944;2022-11-15T12:12:30;99909.69;;;16.03;67.01
7376;BME280;3728;42.266;24.944;2022-11-15T12:17:39;99894.47;;;16.00;66.89
7376;BME280;3728;42.266;24.944;2022-11-15T12:20:26;99894.47;;;16.00;65.88
7376;BME280;3728;42.266;24.944;2022-11-15T12:23:32;99886.00;;;15.94;67.30
7376;BME280;3728;42.266;24.944;2022-11-15T12:26:19;99881.47;;;15.95;68.78
7376;BME280;3728;42.266;24.944;2022-11-15T12:29:02;99881.22;;;15.88;68.64
7376;BME280;3728;42.266;24.944;2022-11-15T12:31:38;99877.16;;;15.90;68.61
7376;BME280;3728;42.266;24.944;2022-11-15T12:36:50;99876.13;;;15.70;67.00
7376;BME280;3728;42.266;24.944;2022-11-15T12:39:19;99869.94;;;15.66;67.66
7376;BME280;3728;42.266;24.944;2022-11-15T12:47:25;99865.75;;;15.65;66.71
7376;BME280;3728;42.266;24.944;2022-11-15T12:49:56;99874.47;;;15.66;66.05
7376;BME280;3728;42.266;24.944;2022-11-15T12:52:23;99865.31;;;15.63;67.04
7376;BME280;3728;42.266;24.944;2022-11-15T12:54:55;99857.34;;;15.51;69.47
7376;BME280;3728;42.266;24.944;2022-11-15T12:57:31;99852.75;;;15.60;69.59
7376;BME280;3728;42.266;24.944;2022-11-15T13:02:41;99846.78;;;15.84;67.29
7376;BME280;3728;42.266;24.944;2022-11-15T13:07:55;99845.66;;;15.85;67.42
7376;BME280;3728;42.266;24.944;2022-11-15T13:13:00;99838.09;;;15.84;69.57
7376;BME280;3728;42.266;24.944;2022-11-15T13:15:34;99837.44;;;15.87;70.01
7376;BME280;3728;42.266;24.944;2022-11-15T13:18:31;99839.63;;;15.85;68.63
7376;BME280;3728;42.266;24.944;2022-11-15T13:21:02;99835.34;;;15.80;69.97
7376;BME280;3728;42.266;24.944;2022-11-15T13:23:54;99824.53;;;15.73;71.11
7376;BME280;3728;42.266;24.944;2022-11-15T13:26:22;99828.78;;;15.98;68.92
7376;BME280;3728;42.266;24.944;2022-11-15T13:28:51;99825.50;;;15.68;70.21
7376;BME280;3728;42.266;24.944;2022-11-15T13:31:33;99824.56;;;15.52;71.08
7376;BME280;3728;42.266;24.944;2022-11-15T13:34:31;99823.84;;;15.43;71.51
7376;BME280;3728;42.266;24.944;2022-11-15T13:39:49;99818.75;;;15.38;72.54
7376;BME280;3728;42.266;24.944;2022-11-15T13:42:19;99812.94;;;15.65;71.77
7376;BME280;3728;42.266;24.944;2022-11-15T13:45:00;99811.44;;;15.77;69.95
7376;BME280;3728;42.266;24.944;2022-11-15T13:47:30;99808.78;;;15.77;68.70
7376;BME280;3728;42.266;24.944;2022-11-15T13:49:59;99805.63;;;15.50;70.91
7376;BME280;3728;42.266;24.944;2022-11-15T13:52:39;99805.63;;;15.50;70.01
7376;BME280;3728;42.266;24.944;2022-11-15T13:57:50;99804.09;;;15.29;71.76
7376;BME280;3728;42.266;24.944;2022-11-15T14:00:34;99798.81;;;15.29;71.52
7376;BME280;3728;42.266;24.944;2022-11-15T14:03:27;99792.63;;;15.45;71.91
7376;BME280;3728;42.266;24.944;2022-11-15T14:06:05;99795.13;;;15.62;71.17
7376;BME280;3728;42.266;24.944;2022-11-15T14:08:34;99796.94;;;15.83;69.64
7376;BME280;3728;42.266;24.944;2022-11-15T14:11:19;99791.75;;;15.86;68.26
7376;BME280;3728;42.266;24.944;2022-11-15T14:16:46;99788.25;;;15.49;70.42
7376;BME280;3728;42.266;24.944;2022-11-15T14:22:19;99789.03;;;15.29;71.28
7376;BME280;3728;42.266;24.944;2022-11-15T14:28:11;99772.75;;;15.48;70.66
7376;BME280;3728;42.266;24.944;2022-11-15T14:30:43;99779.44;;;15.45;70.95
7376;BME280;3728;42.266;24.944;2022-11-15T14:33:20;99776.28;;;15.31;71.27
7376;BME280;3728;42.266;24.944;2022-11-15T14:35:51;99774.25;;;15.16;71.63
7376;BME280;3728;42.266;24.944;2022-11-15T14:38:21;99775.72;;;15.05;72.49
7376;BME280;3728;42.266;24.944;2022-11-15T14:40:48;99781.84;;;14.76;73.87
7376;BME280;3728;42.266;24.944;2022-11-15T14:43:16;99775.13;;;14.58;74.78
7376;BME280;3728;42.266;24.944;2022-11-15T14:45:43;99775.03;;;14.46;75.72
7376;BME280;3728;42.266;24.944;2022-11-15T14:48:11;99767.06;;;14.34;75.96
7376;BME280;3728;42.266;24.944;2022-11-15T14:50:39;99771.59;;;14.16;77.52
7376;BME280;3728;42.266;24.944;2022-11-15T14:53:10;99768.25;;;13.99;78.55
7376;BME280;3728;42.266;24.944;2022-11-15T14:55:39;99766.28;;;13.87;79.73
7376;BME280;3728;42.266;24.944;2022-11-15T14:58:07;99763.25;;;13.68;81.03
7376;BME280;3728;42.266;24.944;2022-11-15T15:00:37;99768.81;;;13.66;81.56
7376;BME280;3728;42.266;24.944;2022-11-15T15:03:06;99757.06;;;13.55;82.03
7376;BME280;3728;42.266;24.944;2022-11-15T15:05:41;99750.75;;;13.48;82.34
7376;BME280;3728;42.266;24.944;2022-11-15T15:08:10;99761.88;;;13.45;83.23
7376;BME280;3728;42.266;24.944;2022-11-15T15:10:45;99762.53;;;13.42;83.47
7376;BME280;3728;42.266;24.944;2022-11-15T15:13:19;99754.16;;;13.31;84.71
7376;BME280;3728;42.266;24.944;2022-11-15T15:15:49;99758.84;;;13.26;85.47
7376;BME280;3728;42.266;24.944;2022-11-15T15:18:18;99757.88;;;13.22;85.44
7376;BME280;3728;42.266;24.944;2022-11-15T15:20:54;99755.28;;;13.13;86.05
7376;BME280;3728;42.266;24.944;2022-11-15T15:23:29;99761.44;;;13.00;87.09
7376;BME280;3728;42.266;24.944;2022-11-15T15:25:57;99761.88;;;12.93;87.68
7376;BME280;3728;42.266;24.944;2022-11-15T15:28:28;99755.38;;;12.91;89.68
7376;BME280;3728;42.266;24.944;2022-11-15T15:31:01;99760.66;;;12.82;89.75
7376;BME280;3728;42.266;24.944;2022-11-15T15:33:29;99757.09;;;12.78;90.21
7376;BME280;3728;42.266;24.944;2022-11-15T15:36:00;99760.78;;;12.77;90.32
7376;BME280;3728;42.266;24.944;2022-11-15T15:38:29;99759.41;;;12.71;89.79
7376;BME280;3728;42.266;24.944;2022-11-15T15:40:58;99761.41;;;12.74;89.41
7376;BME280;3728;42.266;24.944;2022-11-15T15:43:28;99765.28;;;12.68;89.90
7376;BME280;3728;42.266;24.944;2022-11-15T15:45:58;99762.78;;;12.63;89.58
7376;BME280;3728;42.266;24.944;2022-11-15T15:48:29;99758.31;;;12.64;89.35
7376;BME280;3728;42.266;24.944;2022-11-15T15:50:57;99754.13;;;12.54;89.90
7376;BME280;3728;42.266;24.944;2022-11-15T15:53:26;99749.66;;;12.55;89.76
7376;BME280;3728;42.266;24.944;2022-11-15T15:55:54;99751.03;;;12.52;89.66
7376;BME280;3728;42.266;24.944;2022-11-15T15:58:23;99757.50;;;12.46;90.15
7376;BME280;3728;42.266;24.944;2022-11-15T16:00:53;99755.63;;;12.38;90.53
7376;BME280;3728;42.266;24.944;2022-11-15T16:03:23;99758.84;;;12.35;90.96
7376;BME280;3728;42.266;24.944;2022-11-15T16:05:51;99746.63;;;12.22;91.59
7376;BME280;3728;42.266;24.944;2022-11-15T16:08:24;99754.50;;;12.22;91.61
7376;BME280;3728;42.266;24.944;2022-11-15T16:11:14;99757.09;;;12.13;92.44
7376;BME280;3728;42.266;24.944;2022-11-15T16:13:42;99756.03;;;12.14;93.34
7376;BME280;3728;42.266;24.944;2022-11-15T16:16:13;99753.78;;;11.99;93.51
7376;BME280;3728;42.266;24.944;2022-11-15T16:18:43;99751.47;;;11.98;93.74